Airfield :
LOGIN :

Register | Disclaimer

   EN    FR    IT 

 










Legend :    VFR   Marginal VFR   IFR   Intensive IFR   Very Intensive IFR
Visi :
Ceiling :
>= 8 km
>= 3000ft
5 to 8 km
1000 to 3000 ft
1500m to 5 km
500 to 1000 ft
800 to 1500m
200 to 500 ft
< 800m
< 200 ft
Symbols :   Thunderstorms  Fog  Heavy snow  Heavy precipitations  Wind > 20 kt
SIGMETs :     Misc.  Thunderstorms  Icing  Turbulence  Mountain Waves  Volcanic Ashes






- Airport Elevation : 242 ft
- IATA code : DUB


EIDW - Dublin

CURRENT METAR :
  • 062200Z 14004KT 110V170 9999 FEW015 BKN040 18/14 Q1014 NOSIG

EXPIRED METARs :
  • 062130Z 18005KT 150V210 9999 FEW015 BKN040 18/14 Q1015 NOSIG
  • 062100Z 16007KT 9999 FEW015 BKN040 18/14 Q1014 NOSIG
  • 062030Z 15006KT 110V170 9999 FEW015 BKN040 19/14 Q1014 NOSIG
  • 062000Z 15009KT 120V180 9999 FEW012 BKN040 19/14 Q1014 NOSIG
  • 061930Z 19007KT 150V260 9999 FEW012 BKN040 19/15 Q1014 NOSIG

TAF TAF EIDW
Valid from the 06 at 18:00 until the 07 at 18:00 UTC


061700Z 0618/0718 16006KT 9999 FEW010 BKN030
BECMG 0618/0620 20010KT
BECMG 0700/0702 18005KT
PROB30
TEMPO 0702/0705 4000 BR BKN014
BECMG 0710/0712 23010KT



MET'MAP, your aeronautical weather chart ! - Copyright ORBIFLY December 2007 - Disclaimer

ORBIFLY MET'MAP TEAM :

Programming & Development : Alexandra Zaïnal
Concept & original design : Baudouin d'Aumeries
Assistance for programming : Marc-Olivier Méhu
Technical & hardware support : Manuel Goepfert

Contact : metmap@orbifly.com




SOURCES & CREDITS :

   NOAA